sensor_id;sensor_type;location;lat;lon;timestamp;P1;durP1;ratioP1;P2;durP2;ratioP2
4971;SDS011;2501;51.214;6.768;2023-02-10T00:01:41;57.97;;;33.13;;
4971;SDS011;2501;51.214;6.768;2023-02-10T00:04:10;66.72;;;35.05;;
4971;SDS011;2501;51.214;6.768;2023-02-10T00:06:40;65.78;;;34.53;;
4971;SDS011;2501;51.214;6.768;2023-02-10T00:09:09;66.63;;;36.00;;
4971;SDS011;2501;51.214;6.768;2023-02-10T00:11:42;66.15;;;33.58;;
4971;SDS011;2501;51.214;6.768;2023-02-10T00:14:27;67.77;;;34.20;;
4971;SDS011;2501;51.214;6.768;2023-02-10T00:16:57;61.63;;;33.88;;
4971;SDS011;2501;51.214;6.768;2023-02-10T00:19:26;57.47;;;31.52;;
4971;SDS011;2501;51.214;6.768;2023-02-10T00:21:56;66.05;;;33.40;;
4971;SDS011;2501;51.214;6.768;2023-02-10T00:24:24;63.90;;;33.25;;
4971;SDS011;2501;51.214;6.768;2023-02-10T00:26:55;61.50;;;33.92;;
4971;SDS011;2501;51.214;6.768;2023-02-10T00:29:24;64.28;;;34.22;;
4971;SDS011;2501;51.214;6.768;2023-02-10T00:31:53;59.95;;;31.48;;
4971;SDS011;2501;51.214;6.768;2023-02-10T00:34:21;64.00;;;33.67;;
4971;SDS011;2501;51.214;6.768;2023-02-10T00:36:50;65.40;;;34.80;;
4971;SDS011;2501;51.214;6.768;2023-02-10T00:39:19;68.00;;;34.22;;
4971;SDS011;2501;51.214;6.768;2023-02-10T00:41:47;65.85;;;35.75;;
4971;SDS011;2501;51.214;6.768;2023-02-10T00:44:18;68.15;;;36.25;;
4971;SDS011;2501;51.214;6.768;2023-02-10T00:46:47;63.37;;;36.13;;
4971;SDS011;2501;51.214;6.768;2023-02-10T00:49:15;70.95;;;37.63;;
4971;SDS011;2501;51.214;6.768;2023-02-10T00:51:44;67.50;;;35.72;;
4971;SDS011;2501;51.214;6.768;2023-02-10T00:54:12;67.28;;;35.47;;
4971;SDS011;2501;51.214;6.768;2023-02-10T00:56:41;61.28;;;34.47;;
4971;SDS011;2501;51.214;6.768;2023-02-10T00:59:10;62.15;;;34.30;;
4971;SDS011;2501;51.214;6.768;2023-02-10T01:01:43;58.13;;;32.90;;
4971;SDS011;2501;51.214;6.768;2023-02-10T01:04:11;67.60;;;35.70;;
4971;SDS011;2501;51.214;6.768;2023-02-10T01:06:40;69.18;;;35.22;;
4971;SDS011;2501;51.214;6.768;2023-02-10T01:09:08;69.83;;;34.00;;
4971;SDS011;2501;51.214;6.768;2023-02-10T01:11:38;69.28;;;34.22;;
4971;SDS011;2501;51.214;6.768;2023-02-10T01:14:06;65.68;;;36.28;;
4971;SDS011;2501;51.214;6.768;2023-02-10T01:16:35;67.43;;;35.40;;
4971;SDS011;2501;51.214;6.768;2023-02-10T01:19:06;60.13;;;33.80;;
4971;SDS011;2501;51.214;6.768;2023-02-10T01:21:35;59.27;;;33.53;;
4971;SDS011;2501;51.214;6.768;2023-02-10T01:24:03;61.90;;;34.55;;
4971;SDS011;2501;51.214;6.768;2023-02-10T01:26:32;72.22;;;37.88;;
4971;SDS011;2501;51.214;6.768;2023-02-10T01:29:01;72.18;;;38.83;;
4971;SDS011;2501;51.214;6.768;2023-02-10T01:31:29;71.47;;;37.95;;
4971;SDS011;2501;51.214;6.768;2023-02-10T01:33:58;65.10;;;37.00;;
4971;SDS011;2501;51.214;6.768;2023-02-10T01:36:29;73.13;;;35.60;;
4971;SDS011;2501;51.214;6.768;2023-02-10T01:38:57;67.68;;;37.15;;
4971;SDS011;2501;51.214;6.768;2023-02-10T01:41:26;69.60;;;36.33;;
4971;SDS011;2501;51.214;6.768;2023-02-10T01:43:59;66.75;;;35.65;;
4971;SDS011;2501;51.214;6.768;2023-02-10T01:46:29;61.42;;;34.63;;
4971;SDS011;2501;51.214;6.768;2023-02-10T01:48:59;70.45;;;36.20;;
4971;SDS011;2501;51.214;6.768;2023-02-10T01:51:35;67.07;;;34.83;;
4971;SDS011;2501;51.214;6.768;2023-02-10T01:54:06;64.25;;;33.92;;
4971;SDS011;2501;51.214;6.768;2023-02-10T01:56:38;64.32;;;32.90;;
4971;SDS011;2501;51.214;6.768;2023-02-10T01:59:07;66.45;;;34.45;;
4971;SDS011;2501;51.214;6.768;2023-02-10T02:01:35;58.77;;;33.30;;
4971;SDS011;2501;51.214;6.768;2023-02-10T02:04:04;64.28;;;33.97;;
4971;SDS011;2501;51.214;6.768;2023-02-10T02:06:35;60.63;;;34.97;;
4971;SDS011;2501;51.214;6.768;2023-02-10T02:09:04;65.23;;;34.07;;
4971;SDS011;2501;51.214;6.768;2023-02-10T02:11:34;72.80;;;39.08;;
4971;SDS011;2501;51.214;6.768;2023-02-10T02:14:21;81.03;;;42.95;;
4971;SDS011;2501;51.214;6.768;2023-02-10T02:17:01;80.95;;;44.60;;
4971;SDS011;2501;51.214;6.768;2023-02-10T02:19:52;77.25;;;38.90;;
4971;SDS011;2501;51.214;6.768;2023-02-10T02:23:02;70.82;;;37.15;;
4971;SDS011;2501;51.214;6.768;2023-02-10T02:25:42;71.53;;;37.90;;
4971;SDS011;2501;51.214;6.768;2023-02-10T02:28:24;71.68;;;36.08;;
4971;SDS011;2501;51.214;6.768;2023-02-10T02:31:08;67.30;;;35.50;;
4971;SDS011;2501;51.214;6.768;2023-02-10T02:34:00;72.93;;;36.88;;
4971;SDS011;2501;51.214;6.768;2023-02-10T02:36:33;69.68;;;35.05;;
4971;SDS011;2501;51.214;6.768;2023-02-10T02:39:04;71.38;;;35.40;;
4971;SDS011;2501;51.214;6.768;2023-02-10T02:41:33;66.97;;;37.45;;
4971;SDS011;2501;51.214;6.768;2023-02-10T02:44:02;70.13;;;35.35;;
4971;SDS011;2501;51.214;6.768;2023-02-10T02:46:35;67.00;;;35.05;;
4971;SDS011;2501;51.214;6.768;2023-02-10T02:49:17;67.50;;;35.38;;
4971;SDS011;2501;51.214;6.768;2023-02-10T02:51:57;71.50;;;33.63;;
4971;SDS011;2501;51.214;6.768;2023-02-10T02:54:33;64.97;;;33.50;;
4971;SDS011;2501;51.214;6.768;2023-02-10T02:57:07;71.20;;;36.08;;
4971;SDS011;2501;51.214;6.768;2023-02-10T02:59:43;70.28;;;35.15;;
4971;SDS011;2501;51.214;6.768;2023-02-10T03:02:15;70.25;;;36.50;;
4971;SDS011;2501;51.214;6.768;2023-02-10T03:04:49;70.95;;;36.20;;
4971;SDS011;2501;51.214;6.768;2023-02-10T03:07:18;69.82;;;35.47;;
4971;SDS011;2501;51.214;6.768;2023-02-10T03:09:46;67.28;;;35.03;;
4971;SDS011;2501;51.214;6.768;2023-02-10T03:12:15;63.30;;;34.28;;
4971;SDS011;2501;51.214;6.768;2023-02-10T03:14:43;72.00;;;35.83;;
4971;SDS011;2501;51.214;6.768;2023-02-10T03:17:12;68.70;;;35.35;;
4971;SDS011;2501;51.214;6.768;2023-02-10T03:19:40;73.65;;;37.28;;
4971;SDS011;2501;51.214;6.768;2023-02-10T03:22:11;74.18;;;35.58;;
4971;SDS011;2501;51.214;6.768;2023-02-10T03:24:40;74.78;;;38.05;;
4971;SDS011;2501;51.214;6.768;2023-02-10T03:27:08;78.30;;;39.15;;
4971;SDS011;2501;51.214;6.768;2023-02-10T03:29:36;84.15;;;39.55;;
4971;SDS011;2501;51.214;6.768;2023-02-10T03:32:05;80.03;;;39.22;;
4971;SDS011;2501;51.214;6.768;2023-02-10T03:34:33;79.65;;;39.20;;
4971;SDS011;2501;51.214;6.768;2023-02-10T03:37:02;78.53;;;39.25;;
4971;SDS011;2501;51.214;6.768;2023-02-10T03:39:33;80.72;;;38.80;;
4971;SDS011;2501;51.214;6.768;2023-02-10T03:42:01;79.80;;;39.10;;
4971;SDS011;2501;51.214;6.768;2023-02-10T03:44:30;77.05;;;39.35;;
4971;SDS011;2501;51.214;6.768;2023-02-10T03:46:59;83.90;;;38.72;;
4971;SDS011;2501;51.214;6.768;2023-02-10T03:49:27;80.72;;;39.95;;
4971;SDS011;2501;51.214;6.768;2023-02-10T03:51:55;82.80;;;40.87;;
4971;SDS011;2501;51.214;6.768;2023-02-10T03:54:24;80.72;;;38.80;;
4971;SDS011;2501;51.214;6.768;2023-02-10T03:56:55;78.82;;;38.35;;
4971;SDS011;2501;51.214;6.768;2023-02-10T03:59:23;78.63;;;38.75;;
4971;SDS011;2501;51.214;6.768;2023-02-10T04:01:52;72.78;;;37.17;;
4971;SDS011;2501;51.214;6.768;2023-02-10T04:04:20;75.35;;;39.67;;
4971;SDS011;2501;51.214;6.768;2023-02-10T04:06:48;81.90;;;39.10;;
4971;SDS011;2501;51.214;6.768;2023-02-10T04:09:17;79.78;;;40.38;;
4971;SDS011;2501;51.214;6.768;2023-02-10T04:11:45;72.40;;;37.15;;
4971;SDS011;2501;51.214;6.768;2023-02-10T04:14:16;77.90;;;39.55;;
4971;SDS011;2501;51.214;6.768;2023-02-10T04:16:45;77.65;;;37.35;;
4971;SDS011;2501;51.214;6.768;2023-02-10T04:19:13;73.70;;;37.35;;
4971;SDS011;2501;51.214;6.768;2023-02-10T04:21:43;75.25;;;36.47;;
4971;SDS011;2501;51.214;6.768;2023-02-10T04:24:11;79.45;;;38.00;;
4971;SDS011;2501;51.214;6.768;2023-02-10T04:26:39;77.82;;;38.03;;
4971;SDS011;2501;51.214;6.768;2023-02-10T04:29:08;80.15;;;38.85;;
4971;SDS011;2501;51.214;6.768;2023-02-10T04:31:39;82.10;;;39.30;;
4971;SDS011;2501;51.214;6.768;2023-02-10T04:34:07;80.55;;;39.50;;
4971;SDS011;2501;51.214;6.768;2023-02-10T04:36:36;91.53;;;41.22;;
4971;SDS011;2501;51.214;6.768;2023-02-10T04:39:04;86.60;;;40.20;;
4971;SDS011;2501;51.214;6.768;2023-02-10T04:41:32;75.47;;;38.78;;
4971;SDS011;2501;51.214;6.768;2023-02-10T04:44:01;83.97;;;40.00;;
4971;SDS011;2501;51.214;6.768;2023-02-10T04:46:30;78.00;;;38.35;;
4971;SDS011;2501;51.214;6.768;2023-02-10T04:49:01;84.88;;;40.30;;
4971;SDS011;2501;51.214;6.768;2023-02-10T04:51:30;85.10;;;39.65;;
4971;SDS011;2501;51.214;6.768;2023-02-10T04:53:58;79.57;;;39.75;;
4971;SDS011;2501;51.214;6.768;2023-02-10T04:56:27;79.75;;;38.92;;
4971;SDS011;2501;51.214;6.768;2023-02-10T04:58:55;87.60;;;39.30;;
4971;SDS011;2501;51.214;6.768;2023-02-10T05:01:24;77.90;;;38.43;;
4971;SDS011;2501;51.214;6.768;2023-02-10T05:03:52;75.72;;;38.22;;
4971;SDS011;2501;51.214;6.768;2023-02-10T05:06:23;85.68;;;40.10;;
4971;SDS011;2501;51.214;6.768;2023-02-10T05:08:52;76.78;;;38.80;;
4971;SDS011;2501;51.214;6.768;2023-02-10T05:11:20;86.30;;;40.85;;
4971;SDS011;2501;51.214;6.768;2023-02-10T05:13:48;89.93;;;40.65;;
4971;SDS011;2501;51.214;6.768;2023-02-10T05:16:17;86.20;;;40.72;;
4971;SDS011;2501;51.214;6.768;2023-02-10T05:18:45;81.80;;;40.20;;
4971;SDS011;2501;51.214;6.768;2023-02-10T05:21:14;83.45;;;39.55;;
4971;SDS011;2501;51.214;6.768;2023-02-10T05:24:00;88.22;;;40.58;;
4971;SDS011;2501;51.214;6.768;2023-02-10T05:26:28;84.47;;;39.50;;
4971;SDS011;2501;51.214;6.768;2023-02-10T05:28:57;80.07;;;39.20;;
4971;SDS011;2501;51.214;6.768;2023-02-10T05:31:25;78.22;;;37.97;;
4971;SDS011;2501;51.214;6.768;2023-02-10T05:33:55;85.32;;;40.53;;
4971;SDS011;2501;51.214;6.768;2023-02-10T05:36:23;87.05;;;39.33;;
4971;SDS011;2501;51.214;6.768;2023-02-10T05:38:54;80.00;;;38.53;;
4971;SDS011;2501;51.214;6.768;2023-02-10T05:41:35;86.72;;;39.63;;
4971;SDS011;2501;51.214;6.768;2023-02-10T05:44:04;81.50;;;39.80;;
4971;SDS011;2501;51.214;6.768;2023-02-10T05:46:35;81.30;;;40.10;;
4971;SDS011;2501;51.214;6.768;2023-02-10T05:49:03;79.60;;;39.05;;
4971;SDS011;2501;51.214;6.768;2023-02-10T05:51:32;85.40;;;38.87;;
4971;SDS011;2501;51.214;6.768;2023-02-10T05:54:05;83.07;;;39.30;;
4971;SDS011;2501;51.214;6.768;2023-02-10T05:56:34;85.85;;;40.30;;
4971;SDS011;2501;51.214;6.768;2023-02-10T05:59:04;80.90;;;38.60;;
4971;SDS011;2501;51.214;6.768;2023-02-10T06:01:32;93.55;;;42.00;;
4971;SDS011;2501;51.214;6.768;2023-02-10T06:04:02;92.27;;;41.13;;
4971;SDS011;2501;51.214;6.768;2023-02-10T06:06:31;87.57;;;40.10;;
4971;SDS011;2501;51.214;6.768;2023-02-10T06:08:59;83.25;;;40.33;;
4971;SDS011;2501;51.214;6.768;2023-02-10T06:11:42;95.18;;;41.03;;
4971;SDS011;2501;51.214;6.768;2023-02-10T06:14:12;89.45;;;40.95;;
4971;SDS011;2501;51.214;6.768;2023-02-10T06:16:40;89.60;;;41.47;;
4971;SDS011;2501;51.214;6.768;2023-02-10T06:19:10;93.70;;;42.97;;
4971;SDS011;2501;51.214;6.768;2023-02-10T06:21:39;98.25;;;43.00;;
4971;SDS011;2501;51.214;6.768;2023-02-10T06:24:10;84.25;;;39.70;;
4971;SDS011;2501;51.214;6.768;2023-02-10T06:26:39;88.75;;;40.00;;
4971;SDS011;2501;51.214;6.768;2023-02-10T06:29:10;86.22;;;39.08;;
4971;SDS011;2501;51.214;6.768;2023-02-10T06:31:39;82.80;;;40.65;;
4971;SDS011;2501;51.214;6.768;2023-02-10T06:34:07;79.15;;;40.55;;
4971;SDS011;2501;51.214;6.768;2023-02-10T06:36:36;84.70;;;40.50;;
4971;SDS011;2501;51.214;6.768;2023-02-10T06:39:10;88.25;;;40.95;;
4971;SDS011;2501;51.214;6.768;2023-02-10T06:41:38;83.87;;;40.00;;
4971;SDS011;2501;51.214;6.768;2023-02-10T06:44:07;84.10;;;40.17;;
4971;SDS011;2501;51.214;6.768;2023-02-10T06:46:35;90.97;;;40.30;;
4971;SDS011;2501;51.214;6.768;2023-02-10T06:49:03;90.90;;;41.45;;
4971;SDS011;2501;51.214;6.768;2023-02-10T06:51:32;81.18;;;40.03;;
4971;SDS011;2501;51.214;6.768;2023-02-10T06:54:00;83.95;;;39.30;;
4971;SDS011;2501;51.214;6.768;2023-02-10T06:56:31;84.53;;;39.63;;
4971;SDS011;2501;51.214;6.768;2023-02-10T06:59:00;78.30;;;38.33;;
4971;SDS011;2501;51.214;6.768;2023-02-10T07:01:28;89.22;;;39.30;;
4971;SDS011;2501;51.214;6.768;2023-02-10T07:04:00;83.20;;;40.95;;
4971;SDS011;2501;51.214;6.768;2023-02-10T07:06:32;87.50;;;40.30;;
4971;SDS011;2501;51.214;6.768;2023-02-10T07:09:05;84.37;;;40.87;;
4971;SDS011;2501;51.214;6.768;2023-02-10T07:11:37;87.80;;;39.70;;
4971;SDS011;2501;51.214;6.768;2023-02-10T07:14:13;86.70;;;40.00;;
4971;SDS011;2501;51.214;6.768;2023-02-10T07:16:42;86.15;;;40.00;;
4971;SDS011;2501;51.214;6.768;2023-02-10T07:19:14;84.35;;;39.60;;
4971;SDS011;2501;51.214;6.768;2023-02-10T07:21:42;78.13;;;38.47;;
4971;SDS011;2501;51.214;6.768;2023-02-10T07:24:11;83.63;;;39.85;;
4971;SDS011;2501;51.214;6.768;2023-02-10T07:26:48;87.17;;;40.03;;
4971;SDS011;2501;51.214;6.768;2023-02-10T07:29:17;92.18;;;42.13;;
4971;SDS011;2501;51.214;6.768;2023-02-10T07:31:46;86.90;;;40.70;;
4971;SDS011;2501;51.214;6.768;2023-02-10T07:34:14;91.50;;;40.42;;
4971;SDS011;2501;51.214;6.768;2023-02-10T07:36:44;82.40;;;39.67;;
4971;SDS011;2501;51.214;6.768;2023-02-10T07:44:24;81.27;;;40.00;;
4971;SDS011;2501;51.214;6.768;2023-02-10T07:46:52;82.03;;;38.27;;
4971;SDS011;2501;51.214;6.768;2023-02-10T07:49:21;84.10;;;40.70;;
4971;SDS011;2501;51.214;6.768;2023-02-10T07:51:49;89.97;;;40.17;;
4971;SDS011;2501;51.214;6.768;2023-02-10T07:54:17;82.30;;;39.97;;
4971;SDS011;2501;51.214;6.768;2023-02-10T07:56:46;87.75;;;40.38;;
4971;SDS011;2501;51.214;6.768;2023-02-10T07:59:14;80.80;;;39.60;;
4971;SDS011;2501;51.214;6.768;2023-02-10T08:01:45;87.78;;;39.45;;
4971;SDS011;2501;51.214;6.768;2023-02-10T08:04:14;83.82;;;40.22;;
4971;SDS011;2501;51.214;6.768;2023-02-10T08:06:42;87.45;;;41.95;;
4971;SDS011;2501;51.214;6.768;2023-02-10T08:09:11;83.93;;;38.40;;
4971;SDS011;2501;51.214;6.768;2023-02-10T08:11:42;83.97;;;39.57;;
4971;SDS011;2501;51.214;6.768;2023-02-10T08:14:10;83.75;;;38.45;;
4971;SDS011;2501;51.214;6.768;2023-02-10T08:16:39;80.30;;;38.40;;
4971;SDS011;2501;51.214;6.768;2023-02-10T08:19:10;81.55;;;38.70;;
4971;SDS011;2501;51.214;6.768;2023-02-10T08:21:38;76.88;;;38.33;;
4971;SDS011;2501;51.214;6.768;2023-02-10T08:24:07;70.35;;;37.58;;
4971;SDS011;2501;51.214;6.768;2023-02-10T08:26:35;84.47;;;38.80;;
4971;SDS011;2501;51.214;6.768;2023-02-10T08:29:04;81.80;;;39.25;;
4971;SDS011;2501;51.214;6.768;2023-02-10T08:31:33;76.40;;;38.75;;
4971;SDS011;2501;51.214;6.768;2023-02-10T08:34:01;76.40;;;38.03;;
4971;SDS011;2501;51.214;6.768;2023-02-10T08:36:32;80.30;;;37.60;;
4971;SDS011;2501;51.214;6.768;2023-02-10T08:39:01;81.63;;;40.37;;
4971;SDS011;2501;51.214;6.768;2023-02-10T08:41:29;78.35;;;38.17;;
4971;SDS011;2501;51.214;6.768;2023-02-10T08:43:58;80.18;;;39.28;;
4971;SDS011;2501;51.214;6.768;2023-02-10T08:46:26;80.25;;;38.78;;
4971;SDS011;2501;51.214;6.768;2023-02-10T08:48:55;83.82;;;39.25;;
4971;SDS011;2501;51.214;6.768;2023-02-10T08:51:26;95.18;;;39.45;;
4971;SDS011;2501;51.214;6.768;2023-02-10T08:54:00;80.90;;;40.17;;
4971;SDS011;2501;51.214;6.768;2023-02-10T08:56:29;80.20;;;39.03;;
4971;SDS011;2501;51.214;6.768;2023-02-10T08:58:57;83.50;;;37.67;;
4971;SDS011;2501;51.214;6.768;2023-02-10T09:01:26;74.65;;;37.38;;
4971;SDS011;2501;51.214;6.768;2023-02-10T09:03:55;76.68;;;38.83;;
4971;SDS011;2501;51.214;6.768;2023-02-10T09:06:25;84.43;;;39.13;;
4971;SDS011;2501;51.214;6.768;2023-02-10T09:08:56;80.60;;;38.87;;
4971;SDS011;2501;51.214;6.768;2023-02-10T09:11:27;71.10;;;37.78;;
4971;SDS011;2501;51.214;6.768;2023-02-10T09:13:56;81.45;;;38.00;;
4971;SDS011;2501;51.214;6.768;2023-02-10T09:16:25;78.47;;;38.50;;
4971;SDS011;2501;51.214;6.768;2023-02-10T09:18:55;79.50;;;38.42;;
4971;SDS011;2501;51.214;6.768;2023-02-10T09:21:24;77.80;;;37.85;;
4971;SDS011;2501;51.214;6.768;2023-02-10T09:23:55;85.45;;;38.40;;
4971;SDS011;2501;51.214;6.768;2023-02-10T09:26:29;91.32;;;37.60;;
4971;SDS011;2501;51.214;6.768;2023-02-10T09:28:59;80.75;;;38.15;;
4971;SDS011;2501;51.214;6.768;2023-02-10T09:31:28;81.28;;;38.30;;
4971;SDS011;2501;51.214;6.768;2023-02-10T09:33:56;80.53;;;39.60;;
4971;SDS011;2501;51.214;6.768;2023-02-10T09:36:25;79.88;;;37.88;;
4971;SDS011;2501;51.214;6.768;2023-02-10T09:38:54;74.80;;;35.90;;
4971;SDS011;2501;51.214;6.768;2023-02-10T09:41:26;86.70;;;39.03;;
4971;SDS011;2501;51.214;6.768;2023-02-10T09:44:12;79.28;;;39.25;;
4971;SDS011;2501;51.214;6.768;2023-02-10T09:46:47;80.63;;;37.33;;
4971;SDS011;2501;51.214;6.768;2023-02-10T09:49:40;76.35;;;36.92;;
4971;SDS011;2501;51.214;6.768;2023-02-10T09:52:18;84.93;;;40.08;;
4971;SDS011;2501;51.214;6.768;2023-02-10T09:54:57;82.93;;;39.03;;
4971;SDS011;2501;51.214;6.768;2023-02-10T09:57:32;76.78;;;36.85;;
4971;SDS011;2501;51.214;6.768;2023-02-10T10:00:11;74.82;;;36.90;;
4971;SDS011;2501;51.214;6.768;2023-02-10T10:02:50;81.82;;;40.20;;
4971;SDS011;2501;51.214;6.768;2023-02-10T10:05:23;82.88;;;38.53;;
4971;SDS011;2501;51.214;6.768;2023-02-10T10:08:07;72.00;;;36.93;;
4971;SDS011;2501;51.214;6.768;2023-02-10T10:10:45;87.27;;;39.20;;
4971;SDS011;2501;51.214;6.768;2023-02-10T10:13:20;81.25;;;36.10;;
4971;SDS011;2501;51.214;6.768;2023-02-10T10:15:57;79.28;;;36.50;;
4971;SDS011;2501;51.214;6.768;2023-02-10T10:18:37;72.05;;;34.22;;
4971;SDS011;2501;51.214;6.768;2023-02-10T10:21:10;80.37;;;36.53;;
4971;SDS011;2501;51.214;6.768;2023-02-10T10:23:46;77.17;;;36.97;;
4971;SDS011;2501;51.214;6.768;2023-02-10T10:26:32;75.47;;;37.10;;
4971;SDS011;2501;51.214;6.768;2023-02-10T10:29:18;81.73;;;37.27;;
4971;SDS011;2501;51.214;6.768;2023-02-10T10:31:54;77.55;;;37.13;;
4971;SDS011;2501;51.214;6.768;2023-02-10T10:34:33;80.10;;;37.60;;
4971;SDS011;2501;51.214;6.768;2023-02-10T10:37:11;83.07;;;36.83;;
4971;SDS011;2501;51.214;6.768;2023-02-10T10:39:44;73.22;;;34.40;;
4971;SDS011;2501;51.214;6.768;2023-02-10T10:42:23;73.55;;;35.85;;
4971;SDS011;2501;51.214;6.768;2023-02-10T10:45:02;82.30;;;37.42;;
4971;SDS011;2501;51.214;6.768;2023-02-10T10:47:40;75.05;;;35.88;;
4971;SDS011;2501;51.214;6.768;2023-02-10T10:50:14;81.20;;;36.47;;
4971;SDS011;2501;51.214;6.768;2023-02-10T10:52:45;71.25;;;34.20;;
4971;SDS011;2501;51.214;6.768;2023-02-10T10:55:19;76.97;;;35.35;;
4971;SDS011;2501;51.214;6.768;2023-02-10T10:57:51;78.43;;;35.58;;
4971;SDS011;2501;51.214;6.768;2023-02-10T11:00:25;74.90;;;35.85;;
4971;SDS011;2501;51.214;6.768;2023-02-10T11:02:56;80.85;;;37.95;;
4971;SDS011;2501;51.214;6.768;2023-02-10T11:05:27;77.97;;;36.88;;
4971;SDS011;2501;51.214;6.768;2023-02-10T11:07:58;84.25;;;37.35;;
4971;SDS011;2501;51.214;6.768;2023-02-10T11:10:30;84.22;;;37.85;;
4971;SDS011;2501;51.214;6.768;2023-02-10T11:13:04;78.72;;;36.97;;
4971;SDS011;2501;51.214;6.768;2023-02-10T11:15:40;78.03;;;35.28;;
4971;SDS011;2501;51.214;6.768;2023-02-10T11:18:14;77.75;;;35.22;;
4971;SDS011;2501;51.214;6.768;2023-02-10T11:20:54;71.28;;;34.67;;
4971;SDS011;2501;51.214;6.768;2023-02-10T11:23:24;68.88;;;33.50;;
4971;SDS011;2501;51.214;6.768;2023-02-10T11:25:59;83.80;;;37.08;;
4971;SDS011;2501;51.214;6.768;2023-02-10T11:28:29;72.13;;;32.90;;
4971;SDS011;2501;51.214;6.768;2023-02-10T11:31:04;69.83;;;33.63;;
4971;SDS011;2501;51.214;6.768;2023-02-10T11:33:41;68.85;;;32.38;;
4971;SDS011;2501;51.214;6.768;2023-02-10T11:36:09;71.05;;;30.98;;
4971;SDS011;2501;51.214;6.768;2023-02-10T11:38:39;67.68;;;31.23;;
4971;SDS011;2501;51.214;6.768;2023-02-10T11:41:09;65.50;;;31.20;;
4971;SDS011;2501;51.214;6.768;2023-02-10T11:43:40;60.90;;;27.45;;
4971;SDS011;2501;51.214;6.768;2023-02-10T11:46:20;51.90;;;25.98;;
4971;SDS011;2501;51.214;6.768;2023-02-10T11:48:54;61.95;;;27.85;;
4971;SDS011;2501;51.214;6.768;2023-02-10T11:51:24;58.30;;;26.08;;
4971;SDS011;2501;51.214;6.768;2023-02-10T11:53:52;48.05;;;24.15;;
4971;SDS011;2501;51.214;6.768;2023-02-10T11:56:22;52.35;;;25.42;;
4971;SDS011;2501;51.214;6.768;2023-02-10T11:59:08;50.30;;;24.20;;
4971;SDS011;2501;51.214;6.768;2023-02-10T12:01:53;51.40;;;24.33;;
4971;SDS011;2501;51.214;6.768;2023-02-10T12:04:39;51.97;;;24.02;;
4971;SDS011;2501;51.214;6.768;2023-02-10T12:07:26;53.55;;;25.02;;
4971;SDS011;2501;51.214;6.768;2023-02-10T12:10:11;55.80;;;23.75;;
4971;SDS011;2501;51.214;6.768;2023-02-10T12:12:47;54.47;;;24.95;;
4971;SDS011;2501;51.214;6.768;2023-02-10T12:15:25;54.40;;;26.95;;
4971;SDS011;2501;51.214;6.768;2023-02-10T12:18:09;54.45;;;25.15;;
4971;SDS011;2501;51.214;6.768;2023-02-10T12:20:51;60.25;;;28.08;;
4971;SDS011;2501;51.214;6.768;2023-02-10T12:23:40;58.45;;;27.85;;
4971;SDS011;2501;51.214;6.768;2023-02-10T12:26:20;62.30;;;27.23;;
4971;SDS011;2501;51.214;6.768;2023-02-10T12:28:57;56.53;;;29.27;;
4971;SDS011;2501;51.214;6.768;2023-02-10T12:31:38;69.90;;;30.60;;
4971;SDS011;2501;51.214;6.768;2023-02-10T12:34:25;66.13;;;31.50;;
4971;SDS011;2501;51.214;6.768;2023-02-10T12:37:13;68.32;;;31.00;;
4971;SDS011;2501;51.214;6.768;2023-02-10T12:39:55;68.60;;;32.40;;
4971;SDS011;2501;51.214;6.768;2023-02-10T12:42:34;62.58;;;32.97;;
4971;SDS011;2501;51.214;6.768;2023-02-10T12:45:12;61.20;;;30.33;;
4971;SDS011;2501;51.214;6.768;2023-02-10T12:47:48;60.38;;;30.30;;
4971;SDS011;2501;51.214;6.768;2023-02-10T12:50:31;55.80;;;28.35;;
4971;SDS011;2501;51.214;6.768;2023-02-10T12:53:08;54.58;;;27.13;;
4971;SDS011;2501;51.214;6.768;2023-02-10T12:55:44;57.03;;;28.90;;
4971;SDS011;2501;51.214;6.768;2023-02-10T12:58:20;57.97;;;29.50;;
4971;SDS011;2501;51.214;6.768;2023-02-10T13:01:04;59.43;;;29.30;;
4971;SDS011;2501;51.214;6.768;2023-02-10T13:03:39;56.22;;;31.60;;
4971;SDS011;2501;51.214;6.768;2023-02-10T13:06:20;66.28;;;32.28;;
4971;SDS011;2501;51.214;6.768;2023-02-10T13:08:55;63.63;;;30.15;;
4971;SDS011;2501;51.214;6.768;2023-02-10T13:11:33;67.60;;;31.87;;
4971;SDS011;2501;51.214;6.768;2023-02-10T13:14:09;58.47;;;29.50;;
4971;SDS011;2501;51.214;6.768;2023-02-10T13:16:46;67.03;;;33.10;;
4971;SDS011;2501;51.214;6.768;2023-02-10T13:19:22;58.17;;;29.55;;
4971;SDS011;2501;51.214;6.768;2023-02-10T13:22:02;56.47;;;29.60;;
4971;SDS011;2501;51.214;6.768;2023-02-10T13:24:36;61.27;;;30.50;;
4971;SDS011;2501;51.214;6.768;2023-02-10T13:27:16;70.47;;;29.70;;
4971;SDS011;2501;51.214;6.768;2023-02-10T13:29:56;60.17;;;27.95;;
4971;SDS011;2501;51.214;6.768;2023-02-10T13:32:33;53.75;;;28.92;;
4971;SDS011;2501;51.214;6.768;2023-02-10T13:35:13;57.43;;;28.67;;
4971;SDS011;2501;51.214;6.768;2023-02-10T13:37:47;57.72;;;27.73;;
4971;SDS011;2501;51.214;6.768;2023-02-10T13:40:19;61.92;;;31.13;;
4971;SDS011;2501;51.214;6.768;2023-02-10T13:42:50;55.60;;;26.97;;
4971;SDS011;2501;51.214;6.768;2023-02-10T13:45:21;50.25;;;28.15;;
4971;SDS011;2501;51.214;6.768;2023-02-10T13:47:53;52.03;;;26.88;;
4971;SDS011;2501;51.214;6.768;2023-02-10T13:50:26;53.15;;;28.52;;
4971;SDS011;2501;51.214;6.768;2023-02-10T13:53:04;53.42;;;25.77;;
4971;SDS011;2501;51.214;6.768;2023-02-10T13:56:01;48.67;;;23.67;;
4971;SDS011;2501;51.214;6.768;2023-02-10T13:58:32;43.55;;;22.85;;
4971;SDS011;2501;51.214;6.768;2023-02-10T14:01:02;42.58;;;24.60;;
4971;SDS011;2501;51.214;6.768;2023-02-10T14:03:31;42.28;;;23.75;;
4971;SDS011;2501;51.214;6.768;2023-02-10T14:06:02;45.60;;;23.35;;
4971;SDS011;2501;51.214;6.768;2023-02-10T14:08:36;38.45;;;21.40;;
4971;SDS011;2501;51.214;6.768;2023-02-10T14:11:25;46.67;;;21.75;;
4971;SDS011;2501;51.214;6.768;2023-02-10T14:14:16;37.83;;;20.75;;
4971;SDS011;2501;51.214;6.768;2023-02-10T14:16:49;40.90;;;21.58;;
4971;SDS011;2501;51.214;6.768;2023-02-10T14:19:23;45.43;;;23.17;;
4971;SDS011;2501;51.214;6.768;2023-02-10T14:21:57;37.00;;;20.73;;
4971;SDS011;2501;51.214;6.768;2023-02-10T14:24:29;41.38;;;22.20;;
4971;SDS011;2501;51.214;6.768;2023-02-10T14:27:02;38.55;;;20.88;;
4971;SDS011;2501;51.214;6.768;2023-02-10T14:29:34;41.17;;;21.60;;
4971;SDS011;2501;51.214;6.768;2023-02-10T14:32:14;38.00;;;21.63;;
4971;SDS011;2501;51.214;6.768;2023-02-10T14:34:52;33.90;;;19.90;;
4971;SDS011;2501;51.214;6.768;2023-02-10T14:37:22;44.58;;;22.77;;
4971;SDS011;2501;51.214;6.768;2023-02-10T14:39:54;41.30;;;21.60;;
4971;SDS011;2501;51.214;6.768;2023-02-10T14:42:24;40.45;;;21.45;;
4971;SDS011;2501;51.214;6.768;2023-02-10T14:44:55;41.25;;;21.95;;
4971;SDS011;2501;51.214;6.768;2023-02-10T14:47:26;39.42;;;21.20;;
4971;SDS011;2501;51.214;6.768;2023-02-10T14:49:58;37.25;;;21.50;;
4971;SDS011;2501;51.214;6.768;2023-02-10T14:52:28;45.13;;;22.23;;
4971;SDS011;2501;51.214;6.768;2023-02-10T14:55:00;39.55;;;22.77;;
4971;SDS011;2501;51.214;6.768;2023-02-10T14:57:29;39.25;;;20.45;;
4971;SDS011;2501;51.214;6.768;2023-02-10T14:59:58;47.55;;;23.10;;
4971;SDS011;2501;51.214;6.768;2023-02-10T15:02:28;43.03;;;22.55;;
4971;SDS011;2501;51.214;6.768;2023-02-10T15:04:59;37.72;;;21.73;;
4971;SDS011;2501;51.214;6.768;2023-02-10T15:07:31;38.65;;;22.00;;
4971;SDS011;2501;51.214;6.768;2023-02-10T15:10:10;41.13;;;21.67;;
4971;SDS011;2501;51.214;6.768;2023-02-10T15:12:47;36.65;;;21.58;;
4971;SDS011;2501;51.214;6.768;2023-02-10T15:15:18;43.78;;;23.70;;
4971;SDS011;2501;51.214;6.768;2023-02-10T15:17:54;36.25;;;21.75;;
4971;SDS011;2501;51.214;6.768;2023-02-10T15:20:26;42.80;;;21.55;;
4971;SDS011;2501;51.214;6.768;2023-02-10T15:23:04;40.47;;;21.90;;
4971;SDS011;2501;51.214;6.768;2023-02-10T15:25:42;36.20;;;21.27;;